createdAt,value
2023-06-30T00:02:57.461Z,98698.88
2023-06-30T00:08:20.654Z,98700.56
2023-06-30T00:13:42.648Z,98695.50
2023-06-30T00:19:06.614Z,98705.22
2023-06-30T00:24:28.805Z,98688.53
2023-06-30T00:29:50.928Z,98697.50
2023-06-30T00:35:14.878Z,98693.13
2023-06-30T00:40:41.582Z,98683.25
2023-06-30T00:46:04.831Z,98684.50
2023-06-30T00:51:27.355Z,98691.03
2023-06-30T00:56:51.680Z,98683.59
2023-06-30T01:02:20.447Z,98682.84
2023-06-30T01:07:55.577Z,98693.09
2023-06-30T01:13:20.685Z,98671.72
2023-06-30T01:18:46.487Z,98654.34
2023-06-30T01:24:11.623Z,98666.75
2023-06-30T01:29:34.390Z,98671.94
2023-06-30T01:34:57.179Z,98659.31
2023-06-30T01:40:22.999Z,98681.19
2023-06-30T01:45:47.146Z,98667.88
2023-06-30T01:51:14.614Z,98661.81
2023-06-30T01:56:37.300Z,98664.72
2023-06-30T02:01:59.456Z,98667.16
2023-06-30T02:07:21.876Z,98660.75
2023-06-30T02:12:44.783Z,98653.78
2023-06-30T02:18:07.166Z,98648.69
2023-06-30T02:23:31.854Z,98652.13
2023-06-30T02:28:54.379Z,98642.59
2023-06-30T02:34:16.868Z,98641.53
2023-06-30T02:39:39.051Z,98635.91
2023-06-30T02:45:01.222Z,98633.16
2023-06-30T02:50:31.693Z,98631.41
2023-06-30T02:55:55.240Z,98638.84
2023-06-30T03:01:22.496Z,98644.50
2023-06-30T03:06:45.846Z,98626.88
2023-06-30T03:12:10.195Z,98632.00
2023-06-30T03:17:32.769Z,98626.13
2023-06-30T03:22:55.850Z,98610.09
2023-06-30T03:28:18.290Z,98612.31
2023-06-30T03:33:40.625Z,98599.34
2023-06-30T03:39:03.002Z,98614.16
2023-06-30T03:44:25.418Z,98607.69
2023-06-30T03:49:50.068Z,98607.06
2023-06-30T03:55:12.170Z,98610.94
2023-06-30T04:00:35.452Z,98602.25
2023-06-30T04:05:57.724Z,98614.03
2023-06-30T04:11:19.916Z,98613.19
2023-06-30T04:16:42.201Z,98615.47
2023-06-30T04:22:05.600Z,98611.78
2023-06-30T04:27:27.555Z,98612.50
2023-06-30T04:32:50.110Z,98614.00
2023-06-30T04:38:12.512Z,98628.50
2023-06-30T04:43:35.144Z,98621.25
2023-06-30T04:48:57.707Z,98611.53
2023-06-30T04:54:21.264Z,98602.94
2023-06-30T04:59:43.288Z,98595.69
2023-06-30T05:05:05.557Z,98579.53
2023-06-30T05:10:28.062Z,98565.66
2023-06-30T05:15:50.443Z,98563.19
2023-06-30T05:21:12.915Z,98570.94
2023-06-30T05:26:35.031Z,98586.16
2023-06-30T05:32:00.215Z,98598.44
2023-06-30T05:37:22.609Z,98587.03
2023-06-30T05:42:44.587Z,98569.31
2023-06-30T05:48:07.428Z,98537.06
2023-06-30T05:53:29.803Z,98542.28
2023-06-30T05:58:52.221Z,98526.25
2023-06-30T06:04:14.673Z,98535.66
2023-06-30T06:09:36.946Z,98538.53
2023-06-30T06:14:59.377Z,98552.53
2023-06-30T06:20:21.358Z,98542.84
2023-06-30T06:25:45.205Z,98537.72
2023-06-30T06:31:07.813Z,98542.56
2023-06-30T06:36:30.511Z,98521.47
2023-06-30T06:41:52.628Z,98522.03
2023-06-30T06:47:54.484Z,98528.06
2023-06-30T06:53:36.826Z,98530.00
2023-06-30T06:58:59.233Z,98536.91
2023-06-30T07:04:21.540Z,98537.88
2023-06-30T07:09:43.459Z,98534.88
2023-06-30T07:15:07.001Z,98525.69
2023-06-30T07:20:29.247Z,98538.81
2023-06-30T07:25:51.826Z,98497.47
2023-06-30T07:31:14.408Z,98517.50
2023-06-30T07:36:37.471Z,98523.41
2023-06-30T07:41:59.929Z,98536.31
2023-06-30T07:47:22.369Z,98525.72
2023-06-30T07:52:47.116Z,98529.97
2023-06-30T07:58:09.196Z,98515.06
2023-06-30T08:03:31.748Z,98526.72
2023-06-30T08:08:54.637Z,98524.28
2023-06-30T08:14:18.970Z,98507.00
2023-06-30T08:19:46.080Z,98514.09
2023-06-30T08:25:11.511Z,98510.84
2023-06-30T08:30:33.669Z,98512.38
2023-06-30T08:35:56.519Z,98502.75
2023-06-30T08:41:19.985Z,98503.41
2023-06-30T08:46:42.592Z,98501.31
2023-06-30T08:52:05.317Z,98506.13
2023-06-30T08:57:27.792Z,98492.03
2023-06-30T09:02:51.237Z,98492.06
2023-06-30T09:08:27.884Z,98493.56
2023-06-30T09:13:50.415Z,98489.81
2023-06-30T09:19:14.490Z,98482.72
2023-06-30T09:24:37.006Z,98464.50
2023-06-30T09:29:59.093Z,98479.44
2023-06-30T09:35:21.406Z,98475.59
2023-06-30T09:40:49.054Z,98471.53
2023-06-30T09:46:11.493Z,98471.31
2023-06-30T09:51:37.536Z,98471.69
2023-06-30T09:57:01.681Z,98465.81
2023-06-30T10:02:23.930Z,98448.81
2023-06-30T10:07:46.633Z,98456.19
2023-06-30T10:13:09.410Z,98453.22
2023-06-30T10:18:35.511Z,98458.34
2023-06-30T10:23:59.164Z,98439.38
2023-06-30T10:29:22.324Z,98439.88
2023-06-30T10:34:45.046Z,98442.88
2023-06-30T10:40:25.528Z,98431.28
2023-06-30T10:46:11.338Z,98436.19
2023-06-30T10:51:38.847Z,98419.34
2023-06-30T10:57:12.272Z,98405.03
2023-06-30T11:02:36.347Z,98380.91
2023-06-30T11:08:06.301Z,98377.63
2023-06-30T11:13:38.783Z,98361.13
2023-06-30T11:19:01.828Z,98363.72
2023-06-30T11:24:23.939Z,98350.56
2023-06-30T11:29:46.778Z,98343.22
2023-06-30T11:35:13.109Z,98337.16
2023-06-30T11:40:35.340Z,98342.72
2023-06-30T11:46:02.958Z,98337.91
2023-06-30T11:51:25.295Z,98327.22
2023-06-30T11:56:47.264Z,98326.69
2023-06-30T12:02:12.357Z,98334.81
2023-06-30T12:07:34.739Z,98325.50
2023-06-30T12:13:00.503Z,98329.00
2023-06-30T12:18:37.158Z,98322.91
2023-06-30T12:23:59.464Z,98307.69
2023-06-30T12:29:22.570Z,98316.22
2023-06-30T12:34:49.470Z,98310.09
2023-06-30T12:40:12.628Z,98306.13
2023-06-30T12:45:36.675Z,98298.91
2023-06-30T12:51:00.303Z,98281.03
2023-06-30T12:56:27.198Z,98268.28
2023-06-30T13:01:49.602Z,98274.91
2023-06-30T13:07:16.747Z,98273.94
2023-06-30T13:12:43.117Z,98280.72
2023-06-30T13:18:05.595Z,98275.59
2023-06-30T13:23:42.852Z,98267.28
2023-06-30T13:29:05.432Z,98259.72
2023-06-30T13:34:27.382Z,98258.34
2023-06-30T13:39:49.626Z,98262.84
2023-06-30T13:45:12.242Z,98255.38
2023-06-30T13:50:35.124Z,98254.69
2023-06-30T13:56:00.042Z,98251.00
2023-06-30T14:01:21.898Z,98251.81
2023-06-30T14:06:46.401Z,98244.06
2023-06-30T14:12:09.590Z,98251.44
2023-06-30T14:17:31.661Z,98241.66
2023-06-30T14:22:54.014Z,98245.00
2023-06-30T14:28:16.944Z,98234.50
2023-06-30T14:33:39.546Z,98227.25
2023-06-30T14:39:01.797Z,98226.63
2023-06-30T14:44:24.707Z,98219.41
2023-06-30T14:50:44.029Z,98229.44
2023-06-30T14:56:06.292Z,98215.31
2023-06-30T15:01:28.076Z,98224.75
2023-06-30T15:06:49.995Z,98224.44
2023-06-30T15:12:11.927Z,98213.22
2023-06-30T15:17:33.843Z,98223.19
2023-06-30T15:22:55.808Z,98238.47
2023-06-30T15:28:17.885Z,98234.53
2023-06-30T15:33:40.401Z,98229.91
2023-06-30T15:39:02.672Z,98226.53
2023-06-30T15:44:25.147Z,98233.72
2023-06-30T15:49:47.793Z,98235.59
2023-06-30T15:55:13.852Z,98230.13
2023-06-30T16:00:43.243Z,98219.41
2023-06-30T16:06:09.958Z,98222.94
2023-06-30T16:11:35.892Z,98208.38
2023-06-30T16:16:59.241Z,98194.97
2023-06-30T16:22:21.259Z,98184.22
2023-06-30T16:27:43.916Z,98170.56
2023-06-30T16:33:07.254Z,98148.31
2023-06-30T16:38:29.971Z,98141.34
2023-06-30T16:43:51.970Z,98143.94
2023-06-30T16:49:14.079Z,98144.97
2023-06-30T16:54:36.717Z,98140.84
2023-06-30T16:59:59.363Z,98138.59
2023-06-30T17:05:22.952Z,98136.88
2023-06-30T17:10:47.166Z,98143.69
2023-06-30T17:16:09.185Z,98137.63
2023-06-30T17:21:31.525Z,98158.25
2023-06-30T17:26:53.429Z,98166.56
2023-06-30T17:32:15.362Z,98166.50
2023-06-30T17:37:37.474Z,98161.34
2023-06-30T17:42:59.782Z,98156.19
2023-06-30T17:48:24.437Z,98157.22
2023-06-30T17:53:47.168Z,98154.53
2023-06-30T17:59:09.012Z,98155.38
2023-06-30T18:04:31.208Z,98157.47
2023-06-30T18:09:53.332Z,98148.97
2023-06-30T18:15:17.497Z,98149.75
2023-06-30T18:20:39.642Z,98159.53
2023-06-30T18:26:03.238Z,98131.56
2023-06-30T18:31:25.856Z,98129.41
2023-06-30T18:36:48.534Z,98132.13
2023-06-30T18:42:10.980Z,98121.94
2023-06-30T18:47:33.985Z,98117.16
2023-06-30T18:52:58.267Z,98117.94
2023-06-30T18:58:24.288Z,98112.44
2023-06-30T19:03:53.373Z,98120.72
2023-06-30T19:09:15.874Z,98120.00
2023-06-30T19:14:37.986Z,98112.59
2023-06-30T19:20:00.398Z,98123.41
2023-06-30T19:25:22.630Z,98128.13
2023-06-30T19:30:44.773Z,98135.53
2023-06-30T19:36:07.203Z,98124.84
2023-06-30T19:41:29.290Z,98121.63
2023-06-30T19:46:51.674Z,98114.41
2023-06-30T19:52:14.115Z,98107.00
2023-06-30T19:57:36.106Z,98100.28
2023-06-30T20:03:01.971Z,98093.34
2023-06-30T20:08:24.087Z,98079.28
2023-06-30T20:13:47.519Z,98079.50
2023-06-30T20:19:09.680Z,98084.63
2023-06-30T20:24:31.783Z,98058.84
2023-06-30T20:30:00.313Z,98062.53
2023-06-30T20:35:23.954Z,98060.25
2023-06-30T20:40:46.343Z,98068.34
2023-06-30T20:46:11.743Z,98071.88
2023-06-30T20:51:42.210Z,98075.00
2023-06-30T20:57:05.888Z,98078.75
2023-06-30T21:02:28.346Z,98063.16
2023-06-30T21:07:53.705Z,98060.19
2023-06-30T21:13:18.566Z,98058.53
2023-06-30T21:18:41.348Z,98062.19
2023-06-30T21:24:03.521Z,98050.88
2023-06-30T21:29:28.353Z,98053.06
2023-06-30T21:34:51.712Z,98045.81
2023-06-30T21:40:14.960Z,98045.03
2023-06-30T21:45:37.189Z,98043.47
2023-06-30T21:50:59.305Z,98032.41
2023-06-30T21:56:21.061Z,98031.00
2023-06-30T22:01:43.534Z,98026.50
2023-06-30T22:07:06.155Z,98028.66
2023-06-30T22:12:28.256Z,98022.81
2023-06-30T22:17:55.796Z,98024.38
2023-06-30T22:23:17.878Z,98014.38
2023-06-30T22:28:42.464Z,97997.00
2023-06-30T22:34:05.128Z,97987.16
2023-06-30T22:39:27.628Z,97991.16
2023-06-30T22:44:50.054Z,97992.75
2023-06-30T22:50:12.263Z,97997.41
2023-06-30T22:55:37.267Z,98007.38
2023-06-30T23:00:59.504Z,97996.66
2023-06-30T23:06:21.756Z,98001.50
2023-06-30T23:11:48.719Z,97997.72
2023-06-30T23:17:17.394Z,97993.31
2023-06-30T23:22:40.673Z,97989.06
2023-06-30T23:28:05.245Z,97997.34
2023-06-30T23:33:27.214Z,97998.38
2023-06-30T23:38:49.208Z,97997.25
2023-06-30T23:44:11.348Z,97988.06
2023-06-30T23:49:34.117Z,97991.09
2023-06-30T23:54:56.579Z,97977.66
